Time;durP1;ratioP1;P1;durP2;ratioP2;P2;SDS_P1;SDS_P2;PMS_P1;PMS_P2;Temp;Humidity;BMP_temperature;BMP_pressure;BME280_temperature;BME280_humidity;BME280_pressure;Samples;Min_cycle;Max_cycle;Signal;HPM_P1;HPM_P2
2023/03/18 07:38:48;;;;;;;2.97;2.67;;;12.10;99.90;13.60;100644.00;;;;5105079;27;1319905;-77
2023/03/18 07:41:50;;;;;;;1.27;1.27;;;11.80;99.90;14.40;100605.00;;;;5130597;27;20598;-77
2023/03/18 07:45:00;;;;;;;2.93;2.50;;;11.80;99.90;14.10;100622.00;;;;5055499;28;20737;-77
2023/03/18 07:47:57;;;;;;;1.23;1.13;;;11.80;99.90;14.70;100650.00;;;;5047640;28;20230;-77
2023/03/18 07:50:49;;;;;;;1.43;1.37;;;12.00;99.90;15.60;100669.00;;;;5048198;28;20199;-77
2023/03/18 07:53:39;;;;;;;1.13;0.83;;;12.30;99.90;14.40;100607.00;;;;5042810;28;20266;-77
2023/03/18 07:56:24;;;;;;;2.07;1.97;;;12.20;99.90;14.80;100597.00;;;;5101384;28;20801;-77
2023/03/18 07:59:14;;;;;;;2.13;1.95;;;12.20;99.90;15.00;100686.00;;;;5121407;28;20410;-77
2023/03/18 08:02:01;;;;;;;0.63;0.63;;;12.50;99.90;15.30;100669.00;;;;5112851;28;20649;-76
2023/03/18 08:04:28;;;;;;;1.40;0.73;;;12.80;99.90;16.20;100673.00;;;;5104089;28;20184;-84
2023/03/18 08:06:54;;;;;;;1.63;1.40;;;13.10;99.90;15.80;100701.00;;;;5118635;28;20196;-84
2023/03/18 08:09:25;;;;;;;1.87;1.70;;;13.20;99.90;15.70;100691.00;;;;5118235;28;20551;-83
2023/03/18 08:11:54;;;;;;;0.60;0.60;;;13.20;99.90;16.00;100703.00;;;;5114313;28;20177;-84
2023/03/18 08:14:27;;;;;;;3.50;2.60;;;13.20;99.90;15.70;100651.00;;;;5124515;28;20180;-84
2023/03/18 08:16:53;;;;;;;0.83;0.53;;;13.20;99.90;16.20;100718.00;;;;5126704;28;20339;-83
2023/03/18 08:19:20;;;;;;;1.23;1.13;;;13.40;99.90;16.10;100676.00;;;;5126561;28;20643;-84
2023/03/18 08:21:49;;;;;;;2.00;1.67;;;13.40;99.90;16.20;100521.00;;;;5112826;28;20522;-85
2023/03/18 08:24:17;;;;;;;1.00;1.00;;;13.70;99.90;16.70;100714.00;;;;5117487;28;20193;-84
2023/03/18 08:26:46;;;;;;;0.50;0.50;;;14.00;99.90;17.70;100732.00;;;;5123348;27;20239;-84
2023/03/18 08:29:12;;;;;;;0.53;0.47;;;14.50;99.90;17.50;100745.00;;;;5130879;28;20222;-85
2023/03/18 08:31:39;;;;;;;3.23;2.20;;;14.80;99.90;17.50;100741.00;;;;5106180;28;20187;-87
2023/03/18 08:34:06;;;;;;;0.30;0.30;;;14.80;99.90;19.00;100745.00;;;;5112832;28;20207;-87
2023/03/18 08:36:31;;;;;;;1.40;1.30;;;15.40;99.90;18.30;100750.00;;;;5124673;28;20210;-87
2023/03/18 08:39:08;;;;;;;0.40;0.33;;;15.50;99.90;17.60;100720.00;;;;5109196;28;20190;-87
2023/03/18 08:41:35;;;;;;;0.10;0.10;;;15.30;99.90;19.40;100725.00;;;;5113198;28;20637;-88
2023/03/18 08:44:02;;;;;;;1.67;1.53;;;15.90;99.90;19.40;100765.00;;;;5113223;28;20189;-88
2023/03/18 08:46:28;;;;;;;1.70;0.80;;;16.30;99.90;18.70;100778.00;;;;5115379;28;20183;-88
2023/03/18 08:48:54;;;;;;;0.10;0.10;;;16.30;99.90;18.90;100772.00;;;;5099955;28;20230;-88
2023/03/18 08:51:29;;;;;;;0.37;0.27;;;16.00;99.90;18.90;100780.00;;;;5100961;28;20211;-88
2023/03/18 08:54:22;;;;;;;0.20;0.20;;;16.30;99.90;18.10;100754.00;;;;5106371;28;20179;-71
2023/03/18 08:56:54;;;;;;;0.40;0.40;;;15.90;99.90;18.00;100767.00;;;;5098569;28;20211;-67
2023/03/18 08:59:23;;;;;;;0.47;0.47;;;15.50;99.90;19.50;100793.00;;;;5110404;28;20215;-71
2023/03/18 09:01:57;;;;;;;0.30;0.30;;;16.00;99.90;18.40;100771.00;;;;5090850;28;20169;-77
2023/03/18 09:04:24;;;;;;;0.50;0.50;;;15.90;99.90;18.30;100791.00;;;;5109417;28;20190;-75
2023/03/18 09:06:50;;;;;;;0.50;0.50;;;15.60;99.90;18.20;100784.00;;;;5092592;28;20192;-78
2023/03/18 09:09:17;;;;;;;0.10;0.10;;;15.40;99.90;17.40;100745.00;;;;5108206;28;20190;-75
2023/03/18 09:11:53;;;;;;;0.20;0.20;;;15.00;99.90;17.20;100769.00;;;;5096553;28;20668;-78
2023/03/18 09:14:22;;;;;;;0.20;0.20;;;14.80;99.90;17.90;100784.00;;;;5095382;28;20661;-78
2023/03/18 09:16:48;;;;;;;0.50;0.40;;;14.80;99.90;17.30;100758.00;;;;5104231;28;20223;-78
2023/03/18 09:19:17;;;;;;;0.30;0.30;;;14.80;99.90;17.20;100661.00;;;;5103093;28;20192;-78
2023/03/18 09:21:43;;;;;;;0.60;0.60;;;14.60;99.90;17.30;100763.00;;;;5105271;28;20202;-78
2023/03/18 09:24:17;;;;;;;0.20;0.20;;;14.40;99.90;17.70;100785.00;;;;5103857;28;20183;-79
2023/03/18 09:26:46;;;;;;;0.20;0.20;;;14.50;99.90;18.00;100789.00;;;;5092246;28;20291;-79
2023/03/18 09:29:12;;;;;;;0.33;0.33;;;14.70;99.90;16.60;100752.00;;;;5106580;28;20186;-79
2023/03/18 09:31:41;;;;;;;0.40;0.40;;;14.40;99.90;16.60;100771.00;;;;5102166;28;20235;-79
2023/03/18 09:34:08;;;;;;;0.63;0.50;;;14.00;99.90;16.70;100747.00;;;;5094185;28;20188;-78
2023/03/18 09:36:34;;;;;;;0.53;0.53;;;13.90;99.90;16.90;100773.00;;;;5096035;28;20224;-78
2023/03/18 09:39:05;;;;;;;0.63;0.63;;;13.90;99.90;17.10;100769.00;;;;5105369;28;20181;-80
2023/03/18 09:42:21;;;;;;;0.40;0.40;;;14.00;99.90;16.50;100690.00;;;;5094138;28;20652;-78
2023/03/18 09:45:04;;;;;;;0.10;0.10;;;13.90;99.90;17.60;100784.00;;;;5109919;28;20255;-79
2023/03/18 09:47:45;;;;;;;0.20;0.20;;;14.00;99.90;17.30;100582.00;;;;5090492;28;20639;-79
2023/03/18 09:50:35;;;;;;;0.20;0.20;;;14.10;99.90;17.10;100778.00;;;;5098376;28;20182;-78
2023/03/18 09:53:10;;;;;;;0.20;0.20;;;14.10;99.90;17.40;100779.00;;;;5111381;28;20293;-80
2023/03/18 09:55:45;;;;;;;0.20;0.20;;;14.10;99.90;17.90;100713.00;;;;5099904;28;20187;-78
2023/03/18 09:58:45;;;;;;;0.40;0.40;;;14.30;99.90;18.60;100778.00;;;;5097926;28;20202;-78
2023/03/18 10:01:13;;;;;;;1.37;1.07;;;14.60;99.90;17.50;100787.00;;;;5087473;28;20186;-79
2023/03/18 10:03:50;;;;;;;0.20;0.20;;;14.50;99.90;17.40;100767.00;;;;5100393;28;20180;-76
2023/03/18 10:06:23;;;;;;;0.20;0.20;;;14.40;99.90;17.20;100773.00;;;;5106230;28;20220;-76
2023/03/18 10:09:04;;;;;;;0.10;0.10;;;14.40;99.90;18.00;100808.00;;;;5103336;28;20183;-76
2023/03/18 10:11:46;;;;;;;0.43;0.43;;;14.50;99.90;17.50;100795.00;;;;5117859;27;20184;-76
2023/03/18 10:14:53;;;;;;;0.60;0.60;;;14.70;99.90;17.00;100787.00;;;;5087874;28;20191;-76
2023/03/18 10:17:36;;;;;;;0.20;0.20;;;14.40;99.90;17.10;100796.00;;;;5088357;28;20214;-75
2023/03/18 10:20:47;;;;;;;0.63;0.63;;;14.20;99.90;17.40;100726.00;;;;5093610;28;20290;-74
2023/03/18 10:44:35;;;;;;;0.43;0.43;;;13.30;99.90;17.70;100794.00;;;;5092797;27;20564;-81
2023/03/18 10:47:22;;;;;;;1.53;0.77;;;14.10;99.90;16.50;100700.00;;;;5068063;28;20190;-80
2023/03/18 10:50:31;;;;;;;0.43;0.43;;;14.20;99.90;17.80;100779.00;;;;5074903;28;20193;-79
2023/03/18 10:53:23;;;;;;;0.10;0.10;;;14.60;99.90;18.90;100803.00;;;;5051552;28;20599;-80
2023/03/18 10:56:21;;;;;;;0.93;0.93;;;15.60;99.90;17.80;100751.00;;;;5086348;28;20190;-82
2023/03/18 10:59:30;;;;;;;0.83;0.83;;;15.90;99.90;18.20;100797.00;;;;5052712;28;20207;-81
2023/03/18 11:02:35;;;;;;;1.10;0.43;;;15.40;99.90;17.60;100794.00;;;;5053150;28;20198;-81
2023/03/18 11:05:25;;;;;;;0.30;0.30;;;15.20;99.90;18.40;100804.00;;;;5070157;28;20231;-81
2023/03/18 11:08:33;;;;;;;0.63;0.63;;;15.40;99.90;18.80;100798.00;;;;5071716;28;20201;-75
2023/03/18 11:12:04;;;;;;;0.10;0.10;;;16.20;99.90;20.00;100814.00;;;;5100098;28;20257;-75
2023/03/18 11:14:36;;;;;;;0.93;0.83;;;16.80;99.90;20.60;100807.00;;;;5045098;28;20261;-75
2023/03/18 11:20:59;;;;;;;1.43;0.73;;;17.30;99.90;21.70;100835.00;;;;5073925;28;20184;-75
2023/03/18 11:24:06;;;;;;;1.65;1.20;;;17.90;99.90;20.90;100869.00;;;;5078460;28;20196;-75
2023/03/18 11:26:54;;;;;;;4.88;2.72;;;18.20;99.90;20.40;100863.00;;;;5053371;28;20663;-75
2023/03/18 11:29:57;;;;;;;0.40;0.40;;;17.90;99.90;20.30;100788.00;;;;5051613;28;20236;-75
2023/03/18 11:32:57;;;;;;;3.25;0.55;;;17.60;99.90;20.40;100845.00;;;;5084636;28;20216;-75
2023/03/18 11:35:59;;;;;;;0.30;0.30;;;17.60;99.90;19.80;100849.00;;;;5057529;28;20180;-75
2023/03/18 11:38:36;;;;;;;0.50;0.50;;;17.50;99.90;20.30;100837.00;;;;5064505;28;20197;-75
2023/03/18 11:41:16;;;;;;;1.20;0.30;;;17.50;99.90;20.20;100833.00;;;;5086021;28;20541;-74
2023/03/18 11:44:22;;;;;;;0.43;0.43;;;17.50;99.90;20.20;100787.00;;;;5035306;28;20257;-68
2023/03/18 11:47:24;;;;;;;0.93;0.93;;;17.60;99.90;20.70;100838.00;;;;5046882;28;20209;-76
2023/03/18 11:50:24;;;;;;;0.52;0.52;;;17.70;99.90;21.40;100857.00;;;;5041314;28;20177;-81
2023/03/18 11:52:59;;;;;;;0.68;0.50;;;18.10;99.90;20.90;100879.00;;;;5056322;28;20216;-79
2023/03/18 11:56:23;;;;;;;0.43;0.30;;;18.20;99.90;20.20;100876.00;;;;5082080;28;20181;-62
2023/03/18 11:59:06;;;;;;;0.93;0.82;;;17.80;99.90;20.90;100805.00;;;;4968932;28;20203;-78
2023/03/18 12:02:09;;;;;;;0.80;0.75;;;17.90;99.90;19.80;100886.00;;;;5028557;28;20222;-79
2023/03/18 12:04:54;;;;;;;0.15;0.15;;;17.60;99.90;20.50;100846.00;;;;5037738;28;20220;-79
2023/03/18 12:07:41;;;;;;;0.10;0.10;;;17.40;99.90;22.30;100857.00;;;;5063443;28;20269;-79
2023/03/18 12:10:47;;;;;;;0.10;0.10;;;18.30;99.90;21.70;100857.00;;;;5063363;28;20203;-76
2023/03/18 12:14:16;;;;;;;0.57;0.30;;;18.60;99.90;22.00;100798.00;;;;5063698;28;20204;-76
2023/03/18 12:20:31;;;;;;;2.53;1.08;;;19.20;99.90;20.40;100889.00;;;;5055400;28;20194;-77
2023/03/18 12:23:36;;;;;;;0.10;0.10;;;18.60;99.90;20.60;100884.00;;;;5039839;28;20304;-77
2023/03/18 12:26:19;;;;;;;0.28;0.28;;;18.00;99.90;20.50;100876.00;;;;5084432;28;20230;-78
2023/03/18 12:29:19;;;;;;;0.20;0.20;;;17.90;99.90;20.80;100867.00;;;;5058103;28;20261;-78
2023/03/18 12:32:27;;;;;;;1.10;0.85;;;17.50;99.90;20.10;100866.00;;;;5036830;28;20198;-79
2023/03/18 12:35:00;;;;;;;0.43;0.35;;;17.60;99.90;21.00;100848.00;;;;5072327;28;20534;-79
2023/03/18 12:37:41;;;;;;;0.67;0.67;;;17.70;99.90;19.10;100879.00;;;;5077026;28;20183;-80
2023/03/18 12:40:28;;;;;;;1.23;0.37;;;17.10;99.90;20.40;100833.00;;;;5076286;28;20183;-80
2023/03/18 12:43:22;;;;;;;0.40;0.40;;;17.00;99.90;20.40;100849.00;;;;5067702;28;20262;-79
2023/03/18 12:45:58;;;;;;;0.33;0.33;;;17.40;99.90;21.10;100853.00;;;;5056210;28;20232;-80
2023/03/18 12:48:37;;;;;;;0.20;0.20;;;17.80;99.90;20.70;100865.00;;;;5043220;28;20183;-80
2023/03/18 12:51:28;;;;;;;0.50;0.50;;;17.80;99.90;20.30;100860.00;;;;5059689;28;20192;-80
2023/03/18 12:54:09;;;;;;;0.60;0.30;;;17.70;99.90;21.00;100833.00;;;;5031262;28;20174;-80
2023/03/18 12:57:07;;;;;;;0.37;0.37;;;17.80;99.90;20.60;100865.00;;;;5047378;28;20279;-79
2023/03/18 13:00:05;;;;;;;1.17;0.60;;;17.50;99.90;20.10;100810.00;;;;5046803;28;20646;-77
2023/03/18 13:03:34;;;;;;;0.63;0.50;;;17.60;99.90;20.30;100847.00;;;;5049324;28;20295;-77
2023/03/18 13:06:36;;;;;;;0.50;0.50;;;17.20;99.90;20.30;100850.00;;;;5030124;28;20204;-76
2023/03/18 13:09:32;;;;;;;0.20;0.20;;;17.40;99.90;20.30;100847.00;;;;5054510;28;20214;-77
2023/03/18 13:12:06;;;;;;;0.40;0.40;;;17.20;99.90;20.90;100849.00;;;;5063774;28;20312;-77
2023/03/18 13:15:16;;;;;;;0.67;0.67;;;17.50;99.90;19.90;100862.00;;;;5035722;28;20211;-78
2023/03/18 13:18:17;;;;;;;0.20;0.20;;;17.30;99.90;19.80;100852.00;;;;5060888;28;20274;-79
2023/03/18 13:20:52;;;;;;;0.20;0.20;;;17.00;99.90;20.80;100852.00;;;;5056272;28;20189;-79
2023/03/18 13:24:03;;;;;;;0.30;0.30;;;17.20;99.90;19.70;100852.00;;;;5060455;28;20690;-79
2023/03/18 13:26:51;;;;;;;0.30;0.30;;;17.20;99.90;20.70;100853.00;;;;5075855;28;20282;-79
2023/03/18 13:30:02;;;;;;;0.20;0.20;;;17.40;99.90;21.00;100833.00;;;;5055089;28;20187;-80
2023/03/18 13:33:11;;;;;;;0.30;0.30;;;17.70;99.90;21.20;100838.00;;;;5034320;28;20555;-79
2023/03/18 13:36:23;;;;;;;0.10;0.10;;;17.90;99.90;21.30;100838.00;;;;5035466;28;20191;-78
2023/03/18 13:39:01;;;;;;;0.33;0.33;;;17.80;99.90;20.40;100858.00;;;;5046354;28;20291;-78
2023/03/18 13:42:11;;;;;;;0.97;0.60;;;17.60;99.90;19.90;100867.00;;;;5062323;28;20231;-77
2023/03/18 13:44:59;;;;;;;0.80;0.50;;;17.30;99.90;19.90;100849.00;;;;5039657;28;20191;-78
2023/03/18 13:47:37;;;;;;;0.40;0.40;;;17.10;99.90;19.90;100860.00;;;;5066233;28;20196;-78
2023/03/18 13:51:05;;;;;;;0.30;0.30;;;17.00;99.90;20.20;100852.00;;;;5050192;28;20643;-77
2023/03/18 13:53:44;;;;;;;0.30;0.30;;;17.10;99.90;19.80;100851.00;;;;5049473;28;20204;-78
2023/03/18 13:59:31;;;;;;;0.50;0.50;;;16.80;99.90;19.90;100789.00;;;;5051320;28;20194;-77
2023/03/18 14:02:29;;;;;;;0.70;0.63;;;16.90;99.90;20.20;100816.00;;;;5077439;28;20238;-78
2023/03/18 14:05:01;;;;;;;0.97;0.43;;;17.10;99.90;20.80;100823.00;;;;5049625;28;20774;-78
2023/03/18 14:08:24;;;;;;;0.50;0.20;;;17.30;99.90;19.70;100848.00;;;;5042998;28;20180;-76
2023/03/18 14:11:15;;;;;;;0.20;0.20;;;17.20;99.90;20.90;100824.00;;;;5070403;28;20299;-77
2023/03/18 14:13:52;;;;;;;0.83;0.60;;;17.50;99.90;20.30;100836.00;;;;5067169;28;20213;-77
2023/03/18 14:16:28;;;;;;;0.30;0.30;;;17.50;99.90;20.00;100827.00;;;;5042110;28;20204;-77
2023/03/18 14:19:31;;;;;;;0.63;0.50;;;17.20;99.90;19.60;100820.00;;;;5064105;28;20191;-78
2023/03/18 14:22:34;;;;;;;0.67;0.43;;;17.00;99.90;19.80;100834.00;;;;5046601;28;20210;-78
2023/03/18 14:25:42;;;;;;;0.30;0.30;;;17.10;99.90;19.40;100844.00;;;;5045735;28;20217;-78
2023/03/18 14:28:18;;;;;;;0.20;0.20;;;16.80;99.90;20.10;100791.00;;;;5033932;28;20668;-78
2023/03/18 14:31:28;;;;;;;0.70;0.40;;;17.00;99.90;20.70;100747.00;;;;5029946;28;20192;-78
2023/03/18 14:34:13;;;;;;;0.27;0.27;;;17.40;99.90;21.00;100802.00;;;;5053991;28;20190;-78
2023/03/18 14:36:51;;;;;;;0.20;0.20;;;17.60;99.90;20.90;100807.00;;;;5054886;28;20184;-79
2023/03/18 14:39:45;;;;;;;0.67;0.67;;;17.80;99.90;20.90;100804.00;;;;5052910;28;20192;-78
2023/03/18 14:42:52;;;;;;;0.47;0.47;;;17.70;99.90;19.50;100826.00;;;;5030623;28;20683;-75
2023/03/18 14:45:27;;;;;;;0.40;0.40;;;17.40;99.90;20.10;100808.00;;;;5013277;28;20205;-78
2023/03/18 14:48:00;;;;;;;0.93;0.93;;;17.20;99.90;20.20;100803.00;;;;5035160;28;20719;-78
2023/03/18 14:50:27;;;;;;;0.30;0.30;;;17.10;99.90;19.70;100773.00;;;;5033761;28;20216;-78
2023/03/18 14:53:43;;;;;;;1.13;1.13;;;17.00;99.90;20.70;100798.00;;;;5066726;28;20593;-78
2023/03/18 14:56:24;;;;;;;0.63;0.37;;;17.20;99.90;20.10;100815.00;;;;5033335;28;20203;-77
2023/03/18 14:58:55;;;;;;;1.23;0.67;;;17.30;99.90;19.60;100807.00;;;;5053992;28;20189;-78
2023/03/18 15:02:26;;;;;;;2.83;0.50;;;17.00;99.90;20.70;100788.00;;;;5041986;28;20196;-77
2023/03/18 15:05:24;;;;;;;0.53;0.40;;;17.20;99.90;19.60;100792.00;;;;4970954;28;20690;-79
2023/03/18 15:08:46;;;;;;;0.20;0.20;;;17.10;99.90;19.60;100798.00;;;;4939830;28;20261;-78
2023/03/18 15:12:08;;;;;;;0.30;0.30;;;16.90;99.90;20.20;100781.00;;;;4954092;28;20195;-78
2023/03/18 15:14:40;;;;;;;0.73;0.73;;;16.90;99.90;21.10;100755.00;;;;4949596;28;20214;-78
2023/03/18 15:17:37;;;;;;;0.20;0.20;;;17.30;99.90;20.90;100763.00;;;;4960235;28;20321;-76
2023/03/18 15:20:05;;;;;;;0.60;0.40;;;17.10;99.90;20.50;100768.00;;;;4948272;28;20210;-77
2023/03/18 15:22:35;;;;;;;4.67;0.30;;;17.20;99.90;20.20;100737.00;;;;5043434;28;20228;-71
2023/03/18 15:25:07;;;;;;;0.57;0.57;;;17.10;99.90;19.90;100804.00;;;;5058941;28;20196;-80
2023/03/18 15:27:41;;;;;;;0.70;0.57;;;17.00;99.90;19.60;100778.00;;;;5044405;28;20184;-80
2023/03/18 15:30:28;;;;;;;0.10;0.10;;;16.80;99.90;20.20;100769.00;;;;5048290;28;20201;-81
2023/03/18 15:33:21;;;;;;;0.17;0.17;;;16.80;99.90;20.00;100748.00;;;;5056224;28;20188;-80
2023/03/18 15:36:02;;;;;;;0.30;0.30;;;16.90;99.90;20.70;100676.00;;;;5059712;28;20189;-80
2023/03/18 15:38:30;;;;;;;0.20;0.20;;;17.00;99.90;20.00;100746.00;;;;5065463;28;20181;-81
2023/03/18 15:41:11;;;;;;;0.80;0.80;;;17.00;99.90;19.60;100761.00;;;;5063232;28;20279;-80
2023/03/18 15:43:44;;;;;;;3.00;2.83;;;16.90;99.90;19.80;100740.00;;;;5033835;28;20200;-80
2023/03/18 15:46:26;;;;;;;0.20;0.20;;;16.90;99.90;20.10;100736.00;;;;5044683;28;20191;-80
2023/03/18 15:49:25;;;;;;;0.40;0.40;;;16.90;99.90;19.40;100754.00;;;;5038887;28;20281;-81
2023/03/18 15:52:32;;;;;;;3.87;0.60;;;16.90;99.90;20.50;100737.00;;;;5047383;28;20200;-80
2023/03/18 15:55:34;;;;;;;1.43;1.33;;;16.90;99.90;20.80;100698.00;;;;5018611;28;20210;-80
2023/03/18 15:58:06;;;;;;;1.37;1.10;;;17.10;99.90;19.90;100712.00;;;;5026432;28;20184;-80
2023/03/18 16:00:51;;;;;;;0.40;0.40;;;16.90;99.90;20.00;100749.00;;;;5043563;28;20201;-81
2023/03/18 16:03:51;;;;;;;1.50;0.97;;;16.80;99.90;19.90;100656.00;;;;5067899;28;20569;-79
2023/03/18 16:06:21;;;;;;;2.33;1.73;;;16.80;99.90;19.30;100670.00;;;;5043493;28;20221;-78
2023/03/18 16:08:50;;;;;;;0.20;0.20;;;16.70;99.90;20.40;100676.00;;;;5047697;28;20275;-66
2023/03/18 16:11:16;;;;;;;0.30;0.30;;;16.80;99.90;20.40;100747.00;;;;5093311;28;20544;-77
2023/03/18 16:13:45;;;;;;;0.30;0.27;;;16.90;99.90;20.30;100729.00;;;;5055969;28;20294;-75
2023/03/18 16:16:25;;;;;;;0.37;0.30;;;16.90;99.90;19.50;100668.00;;;;5037489;28;20187;-75
2023/03/18 16:18:51;;;;;;;0.90;0.40;;;16.80;99.90;19.10;100723.00;;;;5039964;28;20259;-74
2023/03/18 16:21:19;;;;;;;1.50;0.97;;;16.60;99.90;19.00;100750.00;;;;5058236;28;20663;-75
2023/03/18 16:23:48;;;;;;;0.27;0.27;;;16.40;99.90;19.00;100737.00;;;;5041223;28;20195;-75
2023/03/18 16:26:16;;;;;;;0.83;0.47;;;16.40;99.90;19.00;100736.00;;;;5044607;28;20193;-75
2023/03/18 16:28:48;;;;;;;0.20;0.20;;;16.40;99.90;19.30;100699.00;;;;5063778;28;20679;-75
2023/03/18 16:31:35;;;;;;;0.30;0.30;;;16.30;99.90;18.90;100652.00;;;;5081685;28;20182;-75
2023/03/18 16:34:02;;;;;;;0.20;0.20;;;16.30;99.90;19.20;100715.00;;;;5046405;28;20206;-75
2023/03/18 16:36:33;;;;;;;0.30;0.30;;;16.20;99.90;19.30;100696.00;;;;5054099;28;20271;-75
2023/03/18 16:39:00;;;;;;;4.80;0.80;;;16.30;99.90;19.80;100706.00;;;;5046349;28;20187;-75
2023/03/18 16:41:26;;;;;;;0.40;0.40;;;16.40;99.90;19.20;100708.00;;;;5066135;28;20197;-75
2023/03/18 16:43:53;;;;;;;0.20;0.20;;;16.40;99.90;19.00;100649.00;;;;5068899;28;20272;-76
2023/03/18 16:46:23;;;;;;;0.40;0.30;;;16.30;99.90;19.10;100705.00;;;;5030670;28;20184;-76
2023/03/18 16:48:52;;;;;;;0.87;0.50;;;16.20;99.90;19.00;100683.00;;;;5040008;28;20645;-75
2023/03/18 16:51:40;;;;;;;0.57;0.57;;;16.10;99.90;19.40;100648.00;;;;5047215;28;20224;-76
2023/03/18 16:54:34;;;;;;;0.20;0.20;;;16.30;99.90;19.00;100638.00;;;;5070466;28;20179;-76
2023/03/18 16:57:41;;;;;;;0.40;0.40;;;16.00;99.90;17.80;100695.00;;;;5031446;28;20253;-76
2023/03/18 17:00:48;;;;;;;4.27;0.40;;;15.90;99.90;17.30;100673.00;;;;5049493;28;20194;-75
2023/03/18 17:03:41;;;;;;;0.20;0.20;;;15.40;99.90;18.40;100601.00;;;;5036269;28;20555;-75
2023/03/18 17:06:27;;;;;;;0.20;0.20;;;15.30;99.90;18.40;100688.00;;;;5063852;28;20276;-75
2023/03/18 17:08:55;;;;;;;0.20;0.20;;;15.40;99.90;18.30;100694.00;;;;5039131;28;20201;-76
2023/03/18 17:11:40;;;;;;;0.30;0.30;;;15.30;99.90;18.50;100679.00;;;;5058971;28;20221;-76
2023/03/18 17:14:23;;;;;;;0.20;0.20;;;15.40;99.90;18.70;100660.00;;;;5053141;28;20715;-75
2023/03/18 17:17:31;;;;;;;0.20;0.20;;;15.50;99.90;18.50;100686.00;;;;5066164;28;20582;-75
2023/03/18 17:20:20;;;;;;;0.20;0.20;;;15.40;99.90;19.00;100707.00;;;;5034174;28;20241;-75
2023/03/18 17:23:27;;;;;;;0.20;0.20;;;15.50;99.90;19.00;100706.00;;;;5066277;28;20205;-76
2023/03/18 17:26:19;;;;;;;0.20;0.20;;;15.50;99.90;18.70;100696.00;;;;5046950;28;20633;-75
2023/03/18 17:29:07;;;;;;;0.43;0.43;;;15.60;99.90;17.70;100724.00;;;;5040006;28;20254;-76
2023/03/18 17:31:52;;;;;;;0.70;0.70;;;15.20;99.90;16.60;100713.00;;;;5071466;28;20187;-76
2023/03/18 17:34:46;;;;;;;1.13;1.13;;;14.50;99.90;16.10;100697.00;;;;5034575;28;20187;-76
2023/03/18 17:37:30;;;;;;;1.30;1.30;;;13.90;99.90;16.00;100686.00;;;;5034186;28;20191;-76
2023/03/18 17:40:38;;;;;;;1.37;1.37;;;13.60;99.90;15.70;100681.00;;;;5047894;28;20191;-76
2023/03/18 17:43:29;;;;;;;1.40;1.40;;;13.40;99.90;15.90;100678.00;;;;5053846;28;20221;-77
2023/03/18 17:46:34;;;;;;;1.20;1.20;;;13.40;99.90;15.70;100653.00;;;;5031698;28;20213;-77
2023/03/18 17:49:32;;;;;;;1.00;1.00;;;13.40;99.90;15.50;100658.00;;;;5043120;28;20181;-77
2023/03/18 17:53:09;;;;;;;1.00;1.00;;;13.30;99.90;15.90;100682.00;;;;5060668;28;20199;-77
2023/03/18 17:55:48;;;;;;;1.10;1.10;;;13.30;99.90;16.00;100687.00;;;;5036394;28;20559;-76
2023/03/18 17:59:00;;;;;;;1.00;1.00;;;13.30;99.90;16.00;100685.00;;;;5041402;28;20189;-76
2023/03/18 18:01:52;;;;;;;0.93;0.93;;;13.30;99.90;15.70;100679.00;;;;5050799;28;20193;-75
2023/03/18 18:04:42;;;;;;;0.90;0.90;;;13.40;99.90;15.50;100684.00;;;;5052489;28;20192;-76
2023/03/18 18:08:04;;;;;;;1.03;1.03;;;13.20;99.90;15.70;100678.00;;;;5034799;28;20222;-76
2023/03/18 18:11:05;;;;;;;5.40;1.57;;;13.20;99.90;15.60;100691.00;;;;5044645;28;20191;-77
2023/03/18 18:14:09;;;;;;;1.00;1.00;;;13.20;99.90;15.50;100698.00;;;;5019951;28;20659;-76
2023/03/18 18:17:15;;;;;;;1.00;1.00;;;13.10;99.90;15.40;100703.00;;;;5054957;28;20262;-78
2023/03/18 18:20:25;;;;;;;1.10;1.10;;;13.10;99.90;15.30;100709.00;;;;5047281;28;20181;-78
2023/03/18 18:23:23;;;;;;;0.70;0.70;;;13.00;99.90;15.20;100656.00;;;;5039212;28;20656;-78
2023/03/18 18:26:11;;;;;;;0.70;0.70;;;12.90;99.90;15.20;100715.00;;;;5026879;28;20598;-79
2023/03/18 18:28:47;;;;;;;0.60;0.60;;;12.90;99.90;15.20;100699.00;;;;5057982;28;20662;-79
2023/03/18 18:31:18;;;;;;;0.80;0.80;;;12.80;99.90;15.00;100701.00;;;;5042820;28;20197;-79
2023/03/18 18:33:49;;;;;;;1.67;1.57;;;12.80;99.90;15.80;100699.00;;;;5037611;28;20244;-79
2023/03/18 18:36:15;;;;;;;0.80;0.80;;;12.90;99.90;15.70;100714.00;;;;5036268;28;20205;-79
2023/03/18 18:38:42;;;;;;;0.60;0.60;;;12.90;99.90;15.40;100688.00;;;;5067633;28;20179;-79
2023/03/18 18:41:28;;;;;;;2.40;1.00;;;12.90;99.90;15.20;100693.00;;;;5039546;28;20575;-80
2023/03/18 18:44:34;;;;;;;0.60;0.60;;;12.80;99.90;15.50;100718.00;;;;5044592;28;20216;-79
2023/03/18 18:47:38;;;;;;;1.10;1.07;;;12.80;99.90;15.50;100718.00;;;;5040228;28;20187;-79
2023/03/18 18:50:33;;;;;;;2.30;1.90;;;12.80;99.90;15.40;100709.00;;;;5055781;28;20204;-79
2023/03/18 18:53:44;;;;;;;0.53;0.53;;;12.80;99.90;15.60;100718.00;;;;5055279;28;20555;-79
2023/03/18 18:56:37;;;;;;;0.70;0.70;;;12.90;99.90;15.80;100708.00;;;;5049296;28;20191;-81
2023/03/18 18:59:22;;;;;;;1.70;0.83;;;12.90;99.90;15.80;100727.00;;;;5059385;28;20195;-81
2023/03/18 19:02:26;;;;;;;0.90;0.90;;;13.00;99.90;15.80;100710.00;;;;5038564;28;20278;-81
2023/03/18 19:04:55;;;;;;;0.60;0.60;;;12.90;99.90;15.70;100734.00;;;;5060074;28;20656;-81
2023/03/18 19:07:32;;;;;;;0.60;0.60;;;13.00;99.90;15.70;100705.00;;;;5056065;28;20525;-81
2023/03/18 19:10:02;;;;;;;0.63;0.63;;;13.00;99.90;15.50;100723.00;;;;5051250;28;20603;-81
2023/03/18 19:12:39;;;;;;;0.90;0.90;;;12.90;99.90;15.20;100710.00;;;;5072679;28;20630;-81
2023/03/18 19:15:52;;;;;;;0.93;0.93;;;12.80;99.90;15.60;100726.00;;;;5074201;28;20183;-81
2023/03/18 19:18:42;;;;;;;0.70;0.70;;;12.80;99.90;15.50;100733.00;;;;5030714;28;20199;-81
2023/03/18 19:21:12;;;;;;;2.70;1.23;;;12.90;99.90;15.80;100718.00;;;;5059609;28;20177;-81
2023/03/18 19:24:03;;;;;;;0.80;0.80;;;12.90;99.90;15.50;100734.00;;;;5071490;28;20205;-81
2023/03/18 19:26:29;;;;;;;0.80;0.73;;;12.80;99.90;14.90;100726.00;;;;5061550;28;20560;-81
2023/03/18 19:28:56;;;;;;;0.90;0.90;;;12.70;99.90;15.00;100728.00;;;;5091278;28;20297;-81
2023/03/18 19:31:31;;;;;;;0.90;0.90;;;12.70;99.90;15.40;100735.00;;;;5051088;28;20610;-82
2023/03/18 19:33:58;;;;;;;0.70;0.70;;;12.70;99.90;15.50;100694.00;;;;5033069;28;20199;-82
2023/03/18 19:36:39;;;;;;;0.70;0.70;;;12.70;99.90;15.80;100736.00;;;;5053531;28;20192;-82
2023/03/18 19:39:15;;;;;;;0.90;0.90;;;12.80;99.90;15.50;100716.00;;;;5048839;28;20173;-82
2023/03/18 19:42:31;;;;;;;0.90;0.90;;;12.80;99.90;15.80;100727.00;;;;5034345;28;20655;-82
2023/03/18 19:45:12;;;;;;;0.90;0.90;;;12.80;99.90;15.70;100712.00;;;;5045336;28;20203;-82
2023/03/18 19:48:35;;;;;;;0.73;0.73;;;12.80;99.90;15.50;100727.00;;;;5035127;28;20247;-82
2023/03/18 19:51:07;;;;;;;1.27;1.03;;;12.70;99.90;15.80;100656.00;;;;5041193;28;20193;-82
2023/03/18 19:54:22;;;;;;;0.60;0.60;;;12.80;99.90;15.40;100654.00;;;;5030620;28;20189;-82
2023/03/18 19:56:59;;;;;;;0.83;0.77;;;12.70;99.90;15.60;100684.00;;;;5058849;28;20188;-82
2023/03/18 19:59:29;;;;;;;0.77;0.77;;;12.70;99.90;15.10;100718.00;;;;5037712;28;20206;-82
2023/03/18 20:02:33;;;;;;;1.23;1.13;;;12.70;99.90;15.40;100730.00;;;;5070877;28;20251;-82
2023/03/18 20:05:40;;;;;;;0.50;0.50;;;12.70;99.90;15.10;100682.00;;;;5067458;28;20194;-82
2023/03/18 20:08:59;;;;;;;0.87;0.87;;;12.70;99.90;15.10;100668.00;;;;5039551;28;20667;-82
2023/03/18 20:11:44;;;;;;;1.00;1.00;;;12.60;99.90;15.60;100742.00;;;;5030719;28;20242;-83
2023/03/18 20:14:24;;;;;;;0.60;0.60;;;12.70;99.90;15.20;100744.00;;;;5047623;28;20208;-83
2023/03/18 20:17:48;;;;;;;0.50;0.50;;;12.80;99.90;15.30;100744.00;;;;5036096;28;20665;-83
2023/03/18 20:20:30;;;;;;;0.70;0.70;;;12.80;99.90;15.40;100736.00;;;;5049478;28;20198;-82
2023/03/18 20:23:01;;;;;;;0.90;0.90;;;12.70;99.90;15.40;100751.00;;;;5072159;28;20209;-83